createdAt,value
2022-10-01T00:02:07.825Z,100166.94
2022-10-01T00:04:38.057Z,100153.06
2022-10-01T00:07:10.281Z,100148.03
2022-10-01T00:09:37.499Z,100147.09
2022-10-01T00:12:04.798Z,100138.69
2022-10-01T00:14:32.118Z,100138.38
2022-10-01T00:16:59.265Z,100121.94
2022-10-01T00:19:27.108Z,100112.59
2022-10-01T00:21:54.174Z,100122.34
2022-10-01T00:24:21.275Z,100118.22
2022-10-01T00:26:48.468Z,100102.31
2022-10-01T00:29:15.798Z,100100.84
2022-10-01T00:31:43.222Z,100104.31
2022-10-01T00:34:15.030Z,100112.06
2022-10-01T00:36:42.404Z,100097.19
2022-10-01T00:39:12.175Z,100089.22
2022-10-01T00:41:39.877Z,100082.34
2022-10-01T00:44:36.389Z,100060.44
2022-10-01T00:47:24.862Z,100084.94
2022-10-01T00:49:59.733Z,100083.69
2022-10-01T00:52:31.777Z,100082.22
2022-10-01T00:55:24.380Z,100086.50
2022-10-01T00:57:52.040Z,100074.19
2022-10-01T01:00:19.770Z,100085.38
2022-10-01T01:02:47.073Z,100084.66
2022-10-01T01:05:14.442Z,100067.47
2022-10-01T01:07:52.751Z,100059.31
2022-10-01T01:10:37.850Z,100067.34
2022-10-01T01:13:31.070Z,100060.63
2022-10-01T01:16:16.321Z,100055.84
2022-10-01T01:19:04.729Z,100024.63
2022-10-01T01:21:41.102Z,100021.25
2022-10-01T01:24:38.977Z,99981.38
2022-10-01T01:27:18.241Z,99943.13
2022-10-01T01:30:09.133Z,99927.25
2022-10-01T01:32:54.211Z,99947.22
2022-10-01T01:35:31.529Z,99953.81
2022-10-01T01:38:04.401Z,99968.88
2022-10-01T01:40:36.775Z,99978.63
2022-10-01T01:43:10.353Z,99973.59
2022-10-01T01:45:40.435Z,99975.44
2022-10-01T01:48:10.001Z,99951.06
2022-10-01T01:51:08.331Z,99957.03
2022-10-01T01:53:35.828Z,99971.78
2022-10-01T01:56:03.273Z,99951.69
2022-10-01T01:58:33.346Z,99939.47
2022-10-01T02:01:01.611Z,99944.69
2022-10-01T02:03:30.495Z,99924.59
2022-10-01T02:06:29.203Z,99935.88
2022-10-01T02:09:14.136Z,99927.00
2022-10-01T02:11:58.840Z,99925.97
2022-10-01T02:14:56.730Z,99934.66
2022-10-01T02:17:40.469Z,99919.16
2022-10-01T02:20:18.497Z,99931.41
2022-10-01T02:22:54.098Z,99922.69
2022-10-01T02:25:26.985Z,99900.81
2022-10-01T02:28:11.980Z,99894.97
2022-10-01T02:30:40.151Z,99907.09
2022-10-01T02:33:09.791Z,99896.63
2022-10-01T02:35:38.116Z,99886.72
2022-10-01T02:38:09.309Z,99892.47
2022-10-01T02:40:42.260Z,99894.25
2022-10-01T02:43:25.733Z,99888.06
2022-10-01T02:45:59.681Z,99866.69
2022-10-01T02:48:28.884Z,99878.84
2022-10-01T02:51:25.833Z,99864.09
2022-10-01T02:54:03.224Z,99850.88
2022-10-01T02:56:49.873Z,99870.03
2022-10-01T02:59:21.277Z,99875.19
2022-10-01T03:01:48.563Z,99863.88
2022-10-01T03:04:15.624Z,99893.41
2022-10-01T03:06:42.706Z,99878.44
2022-10-01T03:09:09.806Z,99874.03
2022-10-01T03:11:37.011Z,99878.34
2022-10-01T03:14:04.298Z,99881.69
2022-10-01T03:16:31.378Z,99877.28
2022-10-01T03:18:58.476Z,99873.63
2022-10-01T03:21:25.561Z,99878.84
2022-10-01T03:23:52.737Z,99883.16
2022-10-01T03:26:19.882Z,99873.41
2022-10-01T03:28:46.995Z,99857.41
2022-10-01T03:31:14.141Z,99868.81
2022-10-01T03:33:41.211Z,99873.94
2022-10-01T03:36:08.362Z,99872.06
2022-10-01T03:38:35.526Z,99855.41
2022-10-01T03:41:02.577Z,99856.69
2022-10-01T03:43:30.375Z,99859.00
2022-10-01T03:45:57.999Z,99875.44
2022-10-01T03:48:25.132Z,99871.66
2022-10-01T03:50:57.699Z,99867.03
2022-10-01T03:53:27.238Z,99872.91
2022-10-01T03:55:55.075Z,99886.66
2022-10-01T03:58:23.364Z,99881.09
2022-10-01T04:00:51.336Z,99874.06
2022-10-01T04:03:18.755Z,99876.34
2022-10-01T04:05:48.943Z,99869.09
2022-10-01T04:08:18.768Z,99875.00
2022-10-01T04:10:49.314Z,99880.00
2022-10-01T04:13:17.654Z,99875.50
2022-10-01T04:15:44.827Z,99874.25
2022-10-01T04:18:12.181Z,99869.72
2022-10-01T04:20:39.258Z,99885.22
2022-10-01T04:23:06.320Z,99877.97
2022-10-01T04:25:33.406Z,99882.06
2022-10-01T04:28:07.356Z,99876.72
2022-10-01T04:30:38.369Z,99878.28
2022-10-01T04:33:07.422Z,99882.34
2022-10-01T04:35:34.588Z,99876.16
2022-10-01T04:38:13.418Z,99889.06
2022-10-01T04:40:40.521Z,99893.25
2022-10-01T04:43:09.655Z,99897.53
2022-10-01T04:45:38.037Z,99900.78
2022-10-01T04:48:05.586Z,99899.81
2022-10-01T04:50:33.172Z,99907.69
2022-10-01T04:53:00.440Z,99917.03
2022-10-01T04:55:28.066Z,99910.19
2022-10-01T04:57:55.129Z,99910.19
2022-10-01T05:00:26.959Z,99917.25
2022-10-01T05:02:54.859Z,99926.69
2022-10-01T05:05:27.195Z,99928.44
2022-10-01T05:07:54.230Z,99930.84
2022-10-01T05:10:23.349Z,99922.25
2022-10-01T05:12:51.716Z,99924.66
2022-10-01T05:15:19.525Z,99934.13
2022-10-01T05:17:47.621Z,99935.66
2022-10-01T05:20:21.851Z,99939.03
2022-10-01T05:22:50.258Z,99945.00
2022-10-01T05:25:18.254Z,99944.06
2022-10-01T05:27:46.257Z,99943.72
2022-10-01T05:30:24.229Z,99941.81
2022-10-01T05:33:03.346Z,99954.72
2022-10-01T05:35:31.069Z,99958.91
2022-10-01T05:38:01.522Z,99951.75
2022-10-01T05:40:30.182Z,99959.41
2022-10-01T05:42:59.722Z,99961.00
2022-10-01T05:45:28.633Z,99972.09
2022-10-01T05:48:07.235Z,99969.25
2022-10-01T05:50:40.400Z,99983.09
2022-10-01T05:53:10.412Z,99984.66
2022-10-01T05:55:37.986Z,99982.66
2022-10-01T05:58:07.224Z,99992.91
2022-10-01T06:00:35.099Z,99991.03
2022-10-01T06:03:04.124Z,99987.22
2022-10-01T06:05:34.274Z,99989.63
2022-10-01T06:08:04.465Z,99989.50
2022-10-01T06:10:31.781Z,99997.06
2022-10-01T06:13:02.149Z,99997.81
2022-10-01T06:15:31.890Z,100001.19
2022-10-01T06:18:03.123Z,100001.06
2022-10-01T06:20:30.315Z,100003.47
2022-10-01T06:22:58.432Z,100010.16
2022-10-01T06:25:29.021Z,100012.66
2022-10-01T06:27:59.030Z,100014.94
2022-10-01T06:30:31.855Z,100020.84
2022-10-01T06:33:14.401Z,100023.34
2022-10-01T06:35:52.133Z,100019.53
2022-10-01T06:38:21.889Z,100012.38
2022-10-01T06:40:58.169Z,100018.25
2022-10-01T06:43:28.359Z,100021.59
2022-10-01T06:45:57.002Z,100022.34
2022-10-01T06:48:24.111Z,100029.88
2022-10-01T06:50:52.355Z,100018.78
2022-10-01T06:53:19.534Z,100023.81
2022-10-01T06:55:46.707Z,100018.56
2022-10-01T06:58:17.781Z,100027.16
2022-10-01T07:00:45.991Z,100025.25
2022-10-01T07:03:19.795Z,100034.47
2022-10-01T07:05:48.068Z,100039.25
2022-10-01T07:08:15.612Z,100039.75
2022-10-01T07:10:44.332Z,100043.72
2022-10-01T07:13:17.607Z,100045.88
2022-10-01T07:15:46.213Z,100050.56
2022-10-01T07:18:14.187Z,100052.47
2022-10-01T07:20:41.792Z,100058.22
2022-10-01T07:23:13.118Z,100061.34
2022-10-01T07:25:42.554Z,100058.38
2022-10-01T07:28:18.090Z,100059.19
2022-10-01T07:31:01.385Z,100069.59
2022-10-01T07:33:29.415Z,100074.50
2022-10-01T07:36:01.309Z,100075.69
2022-10-01T07:38:28.710Z,100071.53
2022-10-01T07:40:55.821Z,100081.25
2022-10-01T07:43:23.034Z,100077.19
2022-10-01T07:45:52.410Z,100086.50
2022-10-01T07:48:20.051Z,100077.53
2022-10-01T07:50:47.292Z,100082.69
2022-10-01T07:53:14.385Z,100078.25
2022-10-01T07:55:41.472Z,100102.06
2022-10-01T07:58:09.975Z,100105.78
2022-10-01T08:00:40.157Z,100100.63
2022-10-01T08:03:07.459Z,100108.53
2022-10-01T08:05:36.222Z,100108.28
2022-10-01T08:08:08.892Z,100117.63
2022-10-01T08:10:38.550Z,100111.94
2022-10-01T08:13:16.651Z,100121.88
2022-10-01T08:15:47.280Z,100124.72
2022-10-01T08:18:15.123Z,100128.19
2022-10-01T08:20:42.504Z,100134.31
2022-10-01T08:23:13.211Z,100136.94
2022-10-01T08:25:42.024Z,100143.03
2022-10-01T08:28:11.851Z,100147.69
2022-10-01T08:30:41.549Z,100161.19
2022-10-01T08:33:12.520Z,100159.97
2022-10-01T08:35:41.261Z,100161.28
2022-10-01T08:38:09.449Z,100172.28
2022-10-01T08:40:47.422Z,100173.09
2022-10-01T08:43:34.010Z,100167.72
2022-10-01T08:46:18.839Z,100159.00
2022-10-01T08:49:03.066Z,100155.53
2022-10-01T08:51:39.139Z,100158.78
2022-10-01T08:54:42.372Z,100161.19
2022-10-01T08:57:25.527Z,100163.19
2022-10-01T08:59:58.199Z,100161.41
2022-10-01T09:02:39.454Z,100165.94
2022-10-01T09:05:40.283Z,100165.94
2022-10-01T09:08:43.770Z,100171.06
2022-10-01T09:11:29.410Z,100168.97
2022-10-01T09:14:26.423Z,100177.94
2022-10-01T09:17:06.216Z,100178.06
2022-10-01T09:19:54.442Z,100185.06
2022-10-01T09:22:50.987Z,100187.84
2022-10-01T09:25:24.110Z,100195.03
2022-10-01T09:28:01.792Z,100193.72
2022-10-01T09:30:31.844Z,100199.94
2022-10-01T09:33:14.315Z,100204.25
2022-10-01T09:36:08.567Z,100210.25
2022-10-01T09:38:47.095Z,100213.94
2022-10-01T09:41:14.860Z,100203.06
2022-10-01T09:43:44.741Z,100204.13
2022-10-01T09:46:17.242Z,100214.19
2022-10-01T09:49:43.725Z,100210.81
2022-10-01T09:52:53.787Z,100212.47
2022-10-01T09:55:32.737Z,100217.94
2022-10-01T09:58:28.914Z,100223.94
2022-10-01T10:00:56.703Z,100220.19
2022-10-01T10:03:33.128Z,100228.75
2022-10-01T10:06:01.837Z,100234.25
2022-10-01T10:08:38.876Z,100230.88
2022-10-01T10:11:10.441Z,100233.00
2022-10-01T10:13:41.345Z,100234.91
2022-10-01T10:16:34.329Z,100238.03
2022-10-01T10:19:14.744Z,100233.53
2022-10-01T10:21:57.425Z,100244.47
2022-10-01T10:24:33.996Z,100250.38
2022-10-01T10:27:05.707Z,100252.59
2022-10-01T10:29:36.101Z,100256.56
2022-10-01T10:32:26.513Z,100261.19
2022-10-01T10:35:02.657Z,100259.81
2022-10-01T10:37:38.264Z,100257.25
2022-10-01T10:40:08.287Z,100274.13
2022-10-01T10:42:38.747Z,100278.16
2022-10-01T10:45:17.554Z,100285.00
2022-10-01T10:47:49.013Z,100282.88
2022-10-01T10:50:36.737Z,100283.44
2022-10-01T10:53:22.183Z,100288.06
2022-10-01T10:56:01.997Z,100298.00
2022-10-01T10:58:33.365Z,100308.91
2022-10-01T11:01:13.533Z,100311.44
2022-10-01T11:03:49.901Z,100310.47
2022-10-01T11:06:18.692Z,100312.91
2022-10-01T11:08:57.251Z,100323.00
2022-10-01T11:11:54.042Z,100324.56
2022-10-01T11:15:09.239Z,100327.53
2022-10-01T11:18:11.516Z,100322.13
2022-10-01T11:21:00.228Z,100323.81
2022-10-01T11:24:17.830Z,100339.16
2022-10-01T11:27:36.537Z,100350.81
2022-10-01T11:30:16.722Z,100358.75
2022-10-01T11:33:18.402Z,100342.75
2022-10-01T11:36:26.942Z,100367.44
2022-10-01T11:39:02.893Z,100366.53
2022-10-01T11:41:48.793Z,100362.47
2022-10-01T11:44:44.220Z,100366.03
2022-10-01T11:47:29.120Z,100371.00
2022-10-01T11:50:08.121Z,100364.94
2022-10-01T11:52:52.675Z,100375.41
2022-10-01T11:55:51.826Z,100374.56
2022-10-01T11:58:52.479Z,100382.38
2022-10-01T12:01:28.396Z,100389.69
2022-10-01T12:04:11.920Z,100409.94
2022-10-01T12:07:15.106Z,100401.28
2022-10-01T12:10:00.712Z,100411.63
2022-10-01T12:12:42.613Z,100409.56
2022-10-01T12:15:29.071Z,100416.06
2022-10-01T12:18:17.901Z,100424.59
2022-10-01T12:20:53.504Z,100420.28
2022-10-01T12:23:31.325Z,100423.38
2022-10-01T12:26:45.784Z,100427.25
2022-10-01T12:29:24.806Z,100425.78
2022-10-01T12:32:00.220Z,100425.91
2022-10-01T12:34:40.381Z,100432.69
2022-10-01T12:37:25.525Z,100442.38
2022-10-01T12:40:32.307Z,100442.56
2022-10-01T12:43:44.478Z,100438.47
2022-10-01T12:46:34.033Z,100450.78
2022-10-01T12:49:22.368Z,100448.34
2022-10-01T12:52:33.887Z,100464.41
2022-10-01T12:55:30.750Z,100464.66
2022-10-01T12:58:43.688Z,100467.06
2022-10-01T13:01:30.985Z,100467.13
2022-10-01T13:04:12.201Z,100467.06
2022-10-01T13:07:00.879Z,100478.16
2022-10-01T13:09:49.172Z,100476.59
2022-10-01T13:13:23.490Z,100481.78
2022-10-01T13:16:00.293Z,100485.34
2022-10-01T13:18:50.973Z,100485.41
2022-10-01T13:21:45.535Z,100493.47
2022-10-01T13:24:52.403Z,100499.88
2022-10-01T13:27:35.591Z,100511.38
2022-10-01T13:30:35.096Z,100517.56
2022-10-01T13:33:02.229Z,100516.78
2022-10-01T13:35:39.343Z,100528.13
2022-10-01T13:38:29.072Z,100531.88
2022-10-01T13:41:06.123Z,100544.97
2022-10-01T13:43:35.463Z,100537.50
2022-10-01T13:46:20.940Z,100541.63
2022-10-01T13:48:50.522Z,100545.75
2022-10-01T13:51:18.146Z,100539.47
2022-10-01T13:53:53.697Z,100551.56
2022-10-01T13:56:37.638Z,100551.63
2022-10-01T13:59:35.797Z,100561.50
2022-10-01T14:02:23.712Z,100570.34
2022-10-01T14:04:51.968Z,100574.25
2022-10-01T14:07:35.718Z,100576.94
2022-10-01T14:10:03.285Z,100580.41
2022-10-01T14:12:52.905Z,100585.31
2022-10-01T14:15:38.447Z,100595.22
2022-10-01T14:18:39.364Z,100601.41
2022-10-01T14:21:49.980Z,100592.78
2022-10-01T14:25:05.070Z,100600.06
2022-10-01T14:27:53.041Z,100599.81
2022-10-01T14:30:24.797Z,100599.00
2022-10-01T14:33:46.902Z,100609.56
2022-10-01T14:36:32.477Z,100604.34
2022-10-01T14:39:26.484Z,100608.03
2022-10-01T14:41:56.951Z,100616.56
2022-10-01T14:44:39.052Z,100615.31
2022-10-01T14:47:24.761Z,100614.59
2022-10-01T14:49:54.711Z,100615.72
2022-10-01T14:52:29.898Z,100616.03
2022-10-01T14:54:56.851Z,100617.97
2022-10-01T14:57:47.389Z,100624.97
2022-10-01T15:00:18.381Z,100625.78
2022-10-01T15:03:01.661Z,100638.06
2022-10-01T15:05:37.306Z,100638.47
2022-10-01T15:08:16.606Z,100651.94
2022-10-01T15:10:53.171Z,100640.16
2022-10-01T15:13:27.374Z,100643.19
2022-10-01T15:15:55.695Z,100645.47
2022-10-01T15:18:23.907Z,100654.66
2022-10-01T15:20:55.387Z,100652.03
2022-10-01T15:23:28.931Z,100652.03
2022-10-01T15:26:00.217Z,100649.41
2022-10-01T15:28:33.875Z,100669.09
2022-10-01T15:31:06.459Z,100668.78
2022-10-01T15:33:37.392Z,100670.94
2022-10-01T15:36:07.543Z,100680.06
2022-10-01T15:38:36.135Z,100675.72
2022-10-01T15:41:29.744Z,100687.03
2022-10-01T15:43:53.771Z,100686.22
2022-10-01T15:46:31.248Z,100691.88
2022-10-01T15:49:20.727Z,100693.69
2022-10-01T15:52:25.295Z,100694.47
2022-10-01T15:55:00.215Z,100706.66
2022-10-01T15:57:30.181Z,100710.16
2022-10-01T15:59:57.932Z,100699.16
2022-10-01T16:02:30.338Z,100710.59
2022-10-01T16:05:05.665Z,100711.25
2022-10-01T16:07:36.305Z,100716.38
2022-10-01T16:10:37.294Z,100718.63
2022-10-01T16:13:40.220Z,100729.75
2022-10-01T16:16:13.047Z,100736.84
2022-10-01T16:18:41.717Z,100720.19
2022-10-01T16:21:11.410Z,100726.56
2022-10-01T16:23:48.025Z,100735.16
2022-10-01T16:26:27.341Z,100734.34
2022-10-01T16:29:13.503Z,100741.81
2022-10-01T16:31:44.616Z,100751.66
2022-10-01T16:34:16.942Z,100746.59
2022-10-01T16:36:44.736Z,100751.06
2022-10-01T16:39:13.763Z,100747.94
2022-10-01T16:41:43.305Z,100759.75
2022-10-01T16:44:13.663Z,100764.47
2022-10-01T16:46:41.380Z,100769.91
2022-10-01T16:49:14.826Z,100776.16
2022-10-01T16:51:42.699Z,100785.75
2022-10-01T16:54:22.348Z,100792.88
2022-10-01T16:56:51.925Z,100798.88
2022-10-01T16:59:22.759Z,100799.56
2022-10-01T17:01:54.692Z,100804.47
2022-10-01T17:04:23.476Z,100808.75
2022-10-01T17:06:50.671Z,100810.16
2022-10-01T17:09:17.819Z,100816.00
2022-10-01T17:11:48.215Z,100826.31
2022-10-01T17:14:18.489Z,100818.13
2022-10-01T17:16:45.697Z,100825.75
2022-10-01T17:19:13.738Z,100837.63
2022-10-01T17:21:41.724Z,100837.97
2022-10-01T17:24:12.060Z,100853.28
2022-10-01T17:26:41.727Z,100860.69
2022-10-01T17:29:09.867Z,100861.97
2022-10-01T17:31:40.787Z,100863.28
2022-10-01T17:34:08.359Z,100864.44
2022-10-01T17:36:35.752Z,100873.50
2022-10-01T17:39:03.662Z,100875.75
2022-10-01T17:41:30.878Z,100880.41
2022-10-01T17:43:58.214Z,100885.16
2022-10-01T17:46:25.303Z,100878.41
2022-10-01T17:48:52.521Z,100888.41
2022-10-01T17:51:20.051Z,100886.84
2022-10-01T17:53:47.894Z,100885.34
2022-10-01T17:56:18.000Z,100888.22
2022-10-01T17:58:46.319Z,100894.66
2022-10-01T18:01:22.664Z,100889.72
2022-10-01T18:03:56.513Z,100906.47
2022-10-01T18:06:25.177Z,100902.44
2022-10-01T18:08:56.704Z,100912.25
2022-10-01T18:11:28.987Z,100914.28
2022-10-01T18:13:56.321Z,100918.88
2022-10-01T18:16:24.302Z,100922.59
2022-10-01T18:21:48.474Z,100924.88
2022-10-01T18:24:17.626Z,100934.69
2022-10-01T18:26:45.760Z,100941.88
2022-10-01T18:29:25.919Z,100941.13
2022-10-01T18:32:00.901Z,100946.38
2022-10-01T18:34:48.842Z,100953.34
2022-10-01T18:37:37.553Z,100947.03
2022-10-01T18:40:16.175Z,100957.59
2022-10-01T18:42:47.173Z,100961.88
2022-10-01T18:45:33.187Z,100963.59
2022-10-01T18:48:14.375Z,100960.22
2022-10-01T18:50:58.049Z,100973.41
2022-10-01T18:53:34.620Z,100979.69
2022-10-01T18:56:33.391Z,100972.19
2022-10-01T18:59:41.708Z,100981.16
2022-10-01T19:02:39.123Z,100985.03
2022-10-01T19:05:33.076Z,100994.81
2022-10-01T19:08:16.645Z,100992.38
2022-10-01T19:11:01.860Z,100997.03
2022-10-01T19:13:52.866Z,100999.22
2022-10-01T19:16:56.893Z,101009.94
2022-10-01T19:19:52.604Z,101007.63
2022-10-01T19:23:09.291Z,101016.75
2022-10-01T19:25:50.041Z,101014.41
2022-10-01T19:28:38.637Z,101024.50
2022-10-01T19:31:32.752Z,101019.63
2022-10-01T19:34:17.485Z,101017.28
2022-10-01T19:36:53.838Z,101030.72
2022-10-01T19:39:29.242Z,101025.81
2022-10-01T19:42:13.976Z,101021.66
2022-10-01T19:44:58.047Z,101019.31
2022-10-01T19:47:53.656Z,101018.69
2022-10-01T19:50:30.125Z,101032.13
2022-10-01T19:53:00.800Z,101032.41
2022-10-01T19:55:38.390Z,101039.66
2022-10-01T19:58:19.665Z,101036.34
2022-10-01T20:00:57.059Z,101041.88
2022-10-01T20:03:47.723Z,101048.38
2022-10-01T20:06:31.237Z,101049.38
2022-10-01T20:09:28.687Z,101047.13
2022-10-01T20:12:02.227Z,101053.41
2022-10-01T20:15:08.974Z,101058.03
2022-10-01T20:18:01.242Z,101064.28
2022-10-01T20:20:41.741Z,101064.47
2022-10-01T20:23:30.182Z,101067.28
2022-10-01T20:26:24.143Z,101063.06
2022-10-01T20:29:10.458Z,101063.16
2022-10-01T20:32:27.471Z,101071.22
2022-10-01T20:35:26.350Z,101065.88
2022-10-01T20:38:14.784Z,101072.72
2022-10-01T20:40:53.285Z,101082.41
2022-10-01T20:43:44.533Z,101087.56
2022-10-01T20:46:49.524Z,101088.31
2022-10-01T20:49:40.956Z,101089.19
2022-10-01T20:52:34.360Z,101092.66
2022-10-01T20:55:18.769Z,101095.28
2022-10-01T20:57:58.683Z,101095.47
2022-10-01T21:00:28.072Z,101103.34
2022-10-01T21:03:45.975Z,101104.28
2022-10-01T21:06:30.066Z,101097.34
2022-10-01T21:09:10.989Z,101100.91
2022-10-01T21:12:18.370Z,101108.03
2022-10-01T21:14:53.822Z,101105.50
2022-10-01T21:17:42.097Z,101114.22
2022-10-01T21:20:41.402Z,101116.84
2022-10-01T21:23:37.179Z,101116.00
2022-10-01T21:26:50.493Z,101121.28
2022-10-01T21:30:04.736Z,101113.38
2022-10-01T21:33:02.642Z,101114.97
2022-10-01T21:36:07.069Z,101124.56
2022-10-01T21:39:00.409Z,101119.22
2022-10-01T21:41:53.782Z,101130.56
2022-10-01T21:45:00.808Z,101132.28
2022-10-01T21:47:45.891Z,101130.47
2022-10-01T21:50:54.302Z,101138.28
2022-10-01T21:53:46.756Z,101142.53
2022-10-01T21:56:40.701Z,101144.13
2022-10-01T21:59:39.054Z,101141.59
2022-10-01T22:02:26.301Z,101150.16
2022-10-01T22:05:02.995Z,101148.34
2022-10-01T22:07:46.114Z,101160.66
2022-10-01T22:10:46.386Z,101159.91
2022-10-01T22:13:25.109Z,101162.47
2022-10-01T22:16:01.865Z,101167.63
2022-10-01T22:18:46.230Z,101164.22
2022-10-01T22:21:30.986Z,101166.00
2022-10-01T22:24:21.011Z,101162.53
2022-10-01T22:26:58.771Z,101169.56
2022-10-01T22:29:30.443Z,101170.59
2022-10-01T22:32:03.346Z,101173.25
2022-10-01T22:34:39.296Z,101174.06
2022-10-01T22:37:19.829Z,101179.41
2022-10-01T22:40:00.615Z,101181.22
2022-10-01T22:42:38.695Z,101175.19
2022-10-01T22:45:17.697Z,101174.34
2022-10-01T22:48:04.007Z,101178.75
2022-10-01T22:51:05.804Z,101180.53
2022-10-01T22:53:51.288Z,101178.06
2022-10-01T22:56:31.246Z,101182.56
2022-10-01T22:59:07.410Z,101179.19
2022-10-01T23:02:14.560Z,101178.31
2022-10-01T23:04:50.413Z,101190.72
2022-10-01T23:07:20.177Z,101187.34
2022-10-01T23:09:58.462Z,101190.81
2022-10-01T23:13:12.914Z,101186.38
2022-10-01T23:16:01.738Z,101189.88
2022-10-01T23:18:50.215Z,101186.38
2022-10-01T23:22:02.142Z,101189.63
2022-10-01T23:25:25.784Z,101193.09
2022-10-01T23:28:45.347Z,101197.34
2022-10-01T23:31:44.712Z,101199.88
2022-10-01T23:34:41.349Z,101203.34
2022-10-01T23:37:43.379Z,101227.84
2022-10-01T23:40:18.107Z,101253.72
2022-10-01T23:43:12.607Z,101250.72
2022-10-01T23:45:54.885Z,101243.72
2022-10-01T23:48:38.162Z,101254.97
2022-10-01T23:51:24.608Z,101251.25
2022-10-01T23:54:32.028Z,101254.47
2022-10-01T23:57:21.595Z,101244.50
